Orbital elements of FENGYUN 1C DEB
| Launched | 9 May 1999 |
| Flight ended | – |
| Launch site | Taiyuan Space Center, PRC |
| Owner | People's Republic of China |
| NORAD ID | 31047 |
| Date fetched |
Epoch osculation |
Inc. [°] |
Ecc. | RA asc node [hr] |
Arg Peri. [°] |
Mean anom [°] |
Mean motion [rev/day] |
Abs. mag |
| Date fetched |
Epoch osculation |
Inc. [°] |
Ecc. | RA asc node [hr] |
Arg Peri. [°] |
Mean anom [°] |
Mean motion [rev/day] |
Abs. mag |
| 2026 May 06 17:57 | 2026 May 03 11:33:36 | 98.7064 | 0.00267 | 8.1480 | 133.5868 | 18.0136 | 14.14087 | – |
| 2026 May 05 17:57 | 2026 May 03 11:33:36 | 98.7064 | 0.00267 | 8.1480 | 133.5868 | 18.0136 | 14.14087 | – |
| 2026 May 04 17:57 | 2026 Apr 29 12:21:48 | 98.7070 | 0.00264 | 7.8904 | 144.5533 | 18.0136 | 14.14087 | – |
| 2026 May 03 17:57 | 2026 Apr 29 12:21:48 | 98.7070 | 0.00264 | 7.8904 | 144.5533 | 18.0136 | 14.14087 | – |
| 2026 May 02 17:57 | 2026 Apr 29 12:21:48 | 98.7070 | 0.00264 | 7.8904 | 144.5533 | 18.0136 | 14.14087 | – |
| 2026 May 01 17:56 | 2026 Apr 29 12:21:48 | 98.7070 | 0.00264 | 7.8904 | 144.5533 | 18.0136 | 14.14087 | – |
| 2026 Apr 30 17:56 | 2026 Apr 29 12:21:48 | 98.7070 | 0.00264 | 7.8904 | 144.5533 | 18.0136 | 14.14087 | – |
| 2026 Apr 29 17:57 | 2026 Apr 19 18:14:57 | 98.7077 | 0.00258 | 7.2566 | 171.9895 | 18.0136 | 14.14087 | – |
| 2026 Apr 28 17:56 | 2026 Apr 19 18:14:57 | 98.7077 | 0.00258 | 7.2566 | 171.9895 | 18.0136 | 14.14087 | – |
| 2026 Apr 27 17:58 | 2026 Apr 19 18:14:57 | 98.7077 | 0.00258 | 7.2566 | 171.9895 | 18.0136 | 14.14087 | – |
| 2026 Apr 26 17:58 | 2026 Apr 19 18:14:57 | 98.7077 | 0.00258 | 7.2566 | 171.9895 | 18.0136 | 14.14087 | – |
| 2026 Apr 25 17:58 | 2026 Apr 19 18:14:57 | 98.7077 | 0.00258 | 7.2566 | 171.9895 | 18.0136 | 14.14087 | – |
| 2026 Apr 24 17:59 | 2026 Apr 19 18:14:57 | 98.7077 | 0.00258 | 7.2566 | 171.9895 | 18.0136 | 14.14087 | – |
| 2026 Apr 23 17:57 | 2026 Apr 19 05:35:12 | 98.7071 | 0.00257 | 7.2223 | 173.5791 | 18.0136 | 14.14087 | – |
| 2026 Apr 22 17:57 | 2026 Apr 19 05:35:12 | 98.7071 | 0.00257 | 7.2223 | 173.5791 | 18.0136 | 14.14087 | – |
| 2026 Apr 21 17:57 | 2026 Apr 19 05:35:12 | 98.7071 | 0.00257 | 7.2223 | 173.5791 | 18.0136 | 14.14087 | – |
| 2026 Apr 20 17:57 | 2026 Apr 19 05:35:12 | 98.7071 | 0.00257 | 7.2223 | 173.5791 | 18.0136 | 14.14087 | – |
| 2026 Apr 19 17:58 | 2026 Apr 19 05:35:12 | 98.7071 | 0.00257 | 7.2223 | 173.5791 | 18.0136 | 14.14087 | – |
| 2026 Apr 18 17:56 | 2026 Apr 11 11:26:00 | 98.7064 | 0.00252 | 6.7183 | 195.7827 | 18.0136 | 14.14087 | – |
| 2026 Apr 16 17:57 | 2026 Apr 11 11:26:00 | 98.7064 | 0.00252 | 6.7183 | 195.7827 | 18.0136 | 14.14087 | – |
| 2026 Apr 14 17:57 | 2026 Apr 11 11:26:00 | 98.7064 | 0.00252 | 6.7183 | 195.7827 | 18.0136 | 14.14087 | – |
| 2026 Apr 13 17:57 | 2026 Apr 11 11:26:00 | 98.7064 | 0.00252 | 6.7183 | 195.7827 | 18.0136 | 14.14087 | – |
| 2026 Apr 12 17:57 | 2026 Apr 08 12:08:27 | 98.7056 | 0.00250 | 6.5252 | 204.1696 | 18.0136 | 14.14087 | – |
| 2026 Apr 11 17:57 | 2026 Apr 08 12:08:27 | 98.7056 | 0.00250 | 6.5252 | 204.1696 | 18.0136 | 14.14087 | – |
| 2026 Apr 10 17:58 | 2026 Apr 08 12:08:27 | 98.7056 | 0.00250 | 6.5252 | 204.1696 | 18.0136 | 14.14087 | – |
| 2026 Apr 09 18:01 | 2026 Apr 08 12:08:27 | 98.7056 | 0.00250 | 6.5252 | 204.1696 | 18.0136 | 14.14087 | – |